Time;durP1;ratioP1;P1;durP2;ratioP2;P2;SDS_P1;SDS_P2;PMS_P1;PMS_P2;Temp;Humidity;BMP_temperature;BMP_pressure;BME280_temperature;BME280_humidity;BME280_pressure;Samples;Min_cycle;Max_cycle;Signal;HPM_P1;HPM_P2
2022/06/02 00:02:28;;;;;;;;;;;;;;;;;;5010471;28;20455;-80
2022/06/02 00:05:00;;;;;;;;;;;;;;;;;;5005696;28;19917;-80
2022/06/02 00:07:43;;;;;;;;;;;;;;;;;;5012083;28;19928;-80
2022/06/02 00:10:38;;;;;;;;;;;;;;;;;;5010313;28;19940;-80
2022/06/02 00:13:14;;;;;;;;;;;;;;;;;;4988968;28;19965;-80
2022/06/02 00:15:41;;;;;;;;;;;;;;;;;;4993535;28;19922;-80
2022/06/02 00:18:16;;;;;;;;;;;;;;;;;;5000169;28;20455;-80
2022/06/02 00:20:58;;;;;;;;;;;;;;;;;;4977814;28;19937;-81
2022/06/02 00:23:27;;;;;;;;;;;;;;;;;;4998113;28;19918;-80
2022/06/02 00:25:54;;;;;;;;;;;;;;;;;;5011042;28;19913;-80
2022/06/02 00:28:27;;;;;;;;;;;;;;;;;;4994806;28;19925;-80
2022/06/02 00:31:05;;;;;;;;;;;;;;;;;;4997397;28;19952;-80
2022/06/02 00:33:35;;;;;;;;;;;;;;;;;;5012064;28;19921;-80
2022/06/02 00:36:03;;;;;;;;;;;;;;;;;;5010635;28;19928;-80
2022/06/02 00:38:34;;;;;;;;;;;;;;;;;;5012320;28;20030;-81
2022/06/02 00:41:18;;;;;;;;;;;;;;;;;;4993395;28;20376;-80
2022/06/02 00:43:46;;;;;;;;;;;;;;;;;;4997479;28;19925;-80
2022/06/02 00:46:16;;;;;;;;;;;;;;;;;;4995671;28;19917;-80
2022/06/02 00:48:45;;;;;;;;;;;;;;;;;;4978093;28;20381;-80
2022/06/02 00:51:11;;;;;;;;;;;;;;;;;;4970115;28;20386;-80
2022/06/02 00:53:43;;;;;;;;;;;;;;;;;;4997842;28;20008;-81
2022/06/02 00:59:28;;;;;;;;;;;;;;;;;;4995058;28;19925;-80
2022/06/02 01:01:55;;;;;;;;;;;;;;;;;;4995297;28;20452;-81
2022/06/02 01:04:20;;;;;;;;;;;;;;;;;;4993276;28;19917;-81
2022/06/02 01:06:48;;;;;;;;;;;;;;;;;;4993973;28;19925;-80
2022/06/02 01:09:16;;;;;;;;;;;;;;;;;;5007870;28;19944;-80
2022/06/02 01:11:46;;;;;;;;;;;;;;;;;;4994879;28;19917;-80
2022/06/02 01:14:23;;;;;;;;;;;;;;;;;;4993395;28;19961;-80
2022/06/02 01:16:58;;;;;;;;;;;;;;;;;;4996041;28;19928;-81
2022/06/02 01:19:32;;;;;;;;;;;;;;;;;;4981113;28;19932;-80
2022/06/02 01:22:03;;;;;;;;;;;;;;;;;;4978950;28;19913;-81
2022/06/02 01:24:34;;;;;;;;;;;;;;;;;;5010216;28;19917;-80
2022/06/02 01:27:02;;;;;;;;;;;;;;;;;;4994443;28;19973;-81
2022/06/02 01:30:03;;;;;;;;;;;;;;;;;;4976945;28;19925;-80
2022/06/02 01:32:48;;;;;;;;;;;;;;;;;;4985852;28;19921;-80
2022/06/02 01:35:13;;;;;;;;;;;;;;;;;;4956791;28;19918;-80
2022/06/02 01:37:48;;;;;;;;;;;;;;;;;;4995533;28;19925;-81
2022/06/02 01:40:32;;;;;;;;;;;;;;;;;;4985151;28;19918;-80
2022/06/02 01:43:03;;;;;;;;;;;;;;;;;;4973600;28;19918;-81
2022/06/02 01:45:35;;;;;;;;;;;;;;;;;;4988163;28;19918;-80
2022/06/02 01:48:10;;;;;;;;;;;;;;;;;;5001495;28;19918;-81
2022/06/02 01:50:35;;;;;;;;;;;;;;;;;;4983274;28;19993;-80
2022/06/02 01:53:07;;;;;;;;;;;;;;;;;;4975931;28;19918;-80
2022/06/02 01:55:34;;;;;;;;;;;;;;;;;;4991215;28;19965;-81
2022/06/02 01:58:02;;;;;;;;;;;;;;;;;;4994907;28;20436;-80
2022/06/02 02:00:27;;;;;;;;;;;;;;;;;;4992976;28;20385;-81
2022/06/02 02:03:08;;;;;;;;;;;;;;;;;;4980764;28;19921;-80
2022/06/02 02:05:52;;;;;;;;;;;;;;;;;;5003071;28;19924;-81
2022/06/02 02:08:23;;;;;;;;;;;;;;;;;;4996925;28;19995;-80
2022/06/02 02:10:55;;;;;;;;;;;;;;;;;;4995759;28;19925;-80
2022/06/02 02:13:23;;;;;;;;;;;;;;;;;;4980003;28;20389;-80
2022/06/02 02:15:50;;;;;;;;;;;;;;;;;;4979498;28;19928;-80
2022/06/02 02:18:15;;;;;;;;;;;;;;;;;;4987068;28;19917;-80
2022/06/02 02:20:40;;;;;;;;;;;;;;;;;;4978224;28;20251;-80
2022/06/02 02:23:24;;;;;;;;;;;;;;;;;;4994928;28;19917;-80
2022/06/02 02:25:49;;;;;;;;;;;;;;;;;;4991936;28;19924;-80
2022/06/02 02:28:33;;;;;;;;;;;;;;;;;;4995932;28;19926;-80
2022/06/02 02:31:07;;;;;;;;;;;;;;;;;;4993336;28;19917;-80
2022/06/02 02:33:38;;;;;;;;;;;;;;;;;;4993821;28;19920;-80
2022/06/02 02:36:13;;;;;;;;;;;;;;;;;;4993219;28;20305;-80
2022/06/02 02:38:41;;;;;;;;;;;;;;;;;;4991742;28;19964;-80
2022/06/02 02:41:07;;;;;;;;;;;;;;;;;;4993324;28;20349;-80
2022/06/02 02:43:43;;;;;;;;;;;;;;;;;;4976912;28;19925;-80
2022/06/02 02:46:16;;;;;;;;;;;;;;;;;;4972958;28;19953;-80
2022/06/02 02:48:49;;;;;;;;;;;;;;;;;;4991531;28;20270;-80
2022/06/02 02:51:33;;;;;;;;;;;;;;;;;;4992493;28;20428;-80
2022/06/02 02:54:21;;;;;;;;;;;;;;;;;;4994120;28;19917;-80
2022/06/02 02:56:48;;;;;;;;;;;;;;;;;;4985057;28;19926;-80
2022/06/02 02:59:32;;;;;;;;;;;;;;;;;;4965704;28;19924;-80
2022/06/02 03:01:58;;;;;;;;;;;;;;;;;;4987482;28;19913;-80
2022/06/02 03:04:30;;;;;;;;;;;;;;;;;;5000704;28;20345;-80
2022/06/02 03:06:56;;;;;;;;;;;;;;;;;;5000838;28;20328;-80
2022/06/02 03:09:22;;;;;;;;;;;;;;;;;;4990159;28;19918;-79
2022/06/02 03:12:09;;;;;;;;;;;;;;;;;;4972952;28;19918;-80
2022/06/02 03:14:34;;;;;;;;;;;;;;;;;;4992308;28;19917;-80
2022/06/02 03:17:05;;;;;;;;;;;;;;;;;;5000165;28;20310;-80
2022/06/02 03:19:42;;;;;;;;;;;;;;;;;;4990788;28;19917;-80
2022/06/02 03:22:17;;;;;;;;;;;;;;;;;;4974982;28;19914;-80
2022/06/02 03:25:01;;;;;;;;;;;;;;;;;;4992604;28;19992;-84
2022/06/02 03:27:26;;;;;;;;;;;;;;;;;;4977423;28;22084;-84
2022/06/02 03:30:06;;;;;;;;;;;;;;;;;;4976704;28;19956;-82
2022/06/02 03:32:32;;;;;;;;;;;;;;;;;;4997779;28;19918;-84
2022/06/02 03:34:57;;;;;;;;;;;;;;;;;;4998845;28;19918;-84
2022/06/02 03:37:25;;;;;;;;;;;;;;;;;;4997121;28;19921;-83
2022/06/02 03:39:55;;;;;;;;;;;;;;;;;;4997651;28;20514;-83
2022/06/02 03:42:23;;;;;;;;;;;;;;;;;;5004231;28;20380;-84
2022/06/02 03:45:07;;;;;;;;;;;;;;;;;;4997700;28;19921;-84
2022/06/02 03:47:49;;;;;;;;;;;;;;;;;;4994767;28;19917;-84
2022/06/02 03:50:33;;;;;;;;;;;;;;;;;;4980331;28;19918;-84
2022/06/02 03:53:04;;;;;;;;;;;;;;;;;;4997003;28;19918;-84
2022/06/02 03:55:51;;;;;;;;;;;;;;;;;;4994531;28;20281;-83
2022/06/02 03:58:26;;;;;;;;;;;;;;;;;;4995797;28;19913;-84
2022/06/02 04:00:58;;;;;;;;;;;;;;;;;;4996081;28;19918;-84
2022/06/02 04:03:42;;;;;;;;;;;;;;;;;;4994599;28;19913;-84
2022/06/02 04:06:10;;;;;;;;;;;;;;;;;;5002590;28;19933;-84
2022/06/02 04:08:54;;;;;;;;;;;;;;;;;;5012605;28;20442;-84
2022/06/02 04:11:19;;;;;;;;;;;;;;;;;;4996705;28;20449;-85
2022/06/02 04:13:50;;;;;;;;;;;;;;;;;;4990305;28;20033;-84
2022/06/02 04:16:30;;;;;;;;;;;;;;;;;;4984860;28;20607;-84
2022/06/02 04:20:34;;;;;;;;;;;;;;;;;;4998795;28;19929;-85
2022/06/02 04:22:05;;;;;;;;;;;;;;;;;;4994716;28;19917;-85
2022/06/02 04:24:32;;;;;;;;;;;;;;;;;;4997824;28;19924;-84
2022/06/02 04:26:57;;;;;;;;;;;;;;;;;;4988134;28;19926;-83
2022/06/02 04:29:25;;;;;;;;;;;;;;;;;;4984344;28;20392;-84
2022/06/02 04:32:09;;;;;;;;;;;;;;;;;;4973497;28;19918;-84
2022/06/02 04:34:37;;;;;;;;;;;;;;;;;;5008890;28;20437;-85
2022/06/02 04:37:13;;;;;;;;;;;;;;;;;;4993922;28;20396;-85
2022/06/02 04:39:53;;;;;;;;;;;;;;;;;;4980757;28;19917;-85
2022/06/02 04:42:33;;;;;;;;;;;;;;;;;;4996230;28;19921;-84
2022/06/02 04:45:10;;;;;;;;;;;;;;;;;;4981998;28;20013;-84
2022/06/02 04:47:42;;;;;;;;;;;;;;;;;;4994845;28;20389;-85
2022/06/02 04:50:25;;;;;;;;;;;;;;;;;;4980018;28;19929;-84
2022/06/02 04:52:57;;;;;;;;;;;;;;;;;;4996084;28;19925;-84
2022/06/02 04:55:35;;;;;;;;;;;;;;;;;;4994412;28;20382;-84
2022/06/02 04:58:20;;;;;;;;;;;;;;;;;;4998435;28;20320;-85
2022/06/02 05:00:48;;;;;;;;;;;;;;;;;;5002372;28;19921;-85
2022/06/02 05:03:36;;;;;;;;;;;;;;;;;;4986633;28;19913;-84
2022/06/02 05:06:17;;;;;;;;;;;;;;;;;;5003269;28;20377;-87
2022/06/02 05:08:59;;;;;;;;;;;;;;;;;;5009993;28;20401;-88
2022/06/02 05:11:34;;;;;;;;;;;;;;;;;;4979422;28;20004;-86
2022/06/02 05:14:09;;;;;;;;;;;;;;;;;;5004774;28;20713;-87
2022/06/02 05:16:38;;;;;;;;;;;;;;;;;;5004905;28;20000;-88
2022/06/02 05:19:07;;;;;;;;;;;;;;;;;;5004187;28;20324;-88
2022/06/02 05:22:02;;;;;;;;;;;;;;;;;;4994606;28;20273;-88
2022/06/02 05:24:36;;;;;;;;;;;;;;;;;;4995102;28;19923;-88
2022/06/02 05:27:14;;;;;;;;;;;;;;;;;;5002985;28;19975;-87
2022/06/02 05:29:50;;;;;;;;;;;;;;;;;;4996976;28;19936;-86
2022/06/02 05:32:34;;;;;;;;;;;;;;;;;;4978198;28;20037;-87
2022/06/02 05:35:12;;;;;;;;;;;;;;;;;;4993616;28;20660;-84
2022/06/02 05:37:37;;;;;;;;;;;;;;;;;;5001982;28;20324;-84
2022/06/02 05:40:02;;;;;;;;;;;;;;;;;;4994774;28;19924;-83
2022/06/02 05:42:27;;;;;;;;;;;;;;;;;;4995809;28;20292;-84
2022/06/02 05:45:13;;;;;;;;;;;;;;;;;;4996534;28;19914;-84
2022/06/02 05:47:55;;;;;;;;;;;;;;;;;;4985619;28;19981;-85
2022/06/02 05:50:39;;;;;;;;;;;;;;;;;;5002574;28;19923;-84
2022/06/02 05:53:17;;;;;;;;;;;;;;;;;;4977413;28;19917;-83
2022/06/02 05:55:42;;;;;;;;;;;;;;;;;;5007911;28;19921;-85
2022/06/02 05:58:07;;;;;;;;;;;;;;;;;;5002095;28;20319;-86
2022/06/02 06:00:51;;;;;;;;;;;;;;;;;;4993531;28;20251;-85
2022/06/02 06:03:48;;;;;;;;;;;;;;;;;;4995464;28;20012;-83
2022/06/02 06:06:18;;;;;;;;;;;;;;;;;;4971479;28;20407;-84
2022/06/02 06:08:57;;;;;;;;;;;;;;;;;;4979321;28;19918;-84
2022/06/02 06:11:41;;;;;;;;;;;;;;;;;;4978639;28;19918;-84
2022/06/02 06:14:17;;;;;;;;;;;;;;;;;;4986367;28;20545;-84
2022/06/02 06:16:52;;;;;;;;;;;;;;;;;;4977466;28;19921;-84
2022/06/02 06:19:17;;;;;;;;;;;;;;;;;;4981077;28;19948;-84
2022/06/02 06:22:01;;;;;;;;;;;;;;;;;;4995454;28;19921;-85
2022/06/02 06:24:29;;;;;;;;;;;;;;;;;;4993363;28;19960;-84
2022/06/02 06:27:13;;;;;;;;;;;;;;;;;;4993019;28;20381;-83
2022/06/02 06:29:41;;;;;;;;;;;;;;;;;;5001136;28;19918;-84
2022/06/02 06:32:21;;;;;;;;;;;;;;;;;;4989859;28;19968;-84
2022/06/02 06:35:06;;;;;;;;;;;;;;;;;;4995371;28;20012;-84
2022/06/02 06:37:50;;;;;;;;;;;;;;;;;;5009612;28;19922;-83
2022/06/02 06:40:38;;;;;;;;;;;;;;;;;;4997710;28;20486;-84
2022/06/02 06:43:19;;;;;;;;;;;;;;;;;;4995384;28;19992;-84
2022/06/02 06:45:47;;;;;;;;;;;;;;;;;;4992586;28;19918;-84
2022/06/02 06:48:13;;;;;;;;;;;;;;;;;;4993819;28;20383;-83
2022/06/02 06:50:53;;;;;;;;;;;;;;;;;;4979052;28;19925;-84
2022/06/02 06:53:24;;;;;;;;;;;;;;;;;;4981849;28;20551;-83
2022/06/02 06:55:55;;;;;;;;;;;;;;;;;;5007017;28;19921;-84
2022/06/02 06:58:20;;;;;;;;;;;;;;;;;;5001947;28;20394;-84
2022/06/02 07:00:47;;;;;;;;;;;;;;;;;;5003786;28;20007;-84
2022/06/02 07:03:15;;;;;;;;;;;;;;;;;;4981192;28;19959;-84
2022/06/02 07:05:46;;;;;;;;;;;;;;;;;;4995434;28;20250;-84
2022/06/02 07:08:31;;;;;;;;;;;;;;;;;;4997494;28;20307;-84
2022/06/02 07:11:06;;;;;;;;;;;;;;;;;;4982613;28;20389;-84
2022/06/02 07:13:31;;;;;;;;;;;;;;;;;;4987012;28;20028;-83
2022/06/02 07:15:58;;;;;;;;;;;;;;;;;;4983686;28;19926;-84
2022/06/02 07:18:41;;;;;;;;;;;;;;;;;;4997099;28;19921;-84
2022/06/02 07:21:16;;;;;;;;;;;;;;;;;;5004062;28;19917;-83
2022/06/02 07:23:46;;;;;;;;;;;;;;;;;;4982687;28;19917;-84
2022/06/02 07:26:17;;;;;;;;;;;;;;;;;;4996143;28;20471;-84
2022/06/02 07:28:51;;;;;;;;;;;;;;;;;;4990237;28;20285;-84
2022/06/02 07:31:35;;;;;;;;;;;;;;;;;;4985294;28;19953;-83
2022/06/02 07:34:03;;;;;;;;;;;;;;;;;;4998498;28;19917;-84
2022/06/02 07:36:46;;;;;;;;;;;;;;;;;;5009546;28;19987;-84
2022/06/02 07:39:14;;;;;;;;;;;;;;;;;;4996707;28;19921;-84
2022/06/02 07:41:43;;;;;;;;;;;;;;;;;;4998894;28;19924;-84
2022/06/02 07:44:14;;;;;;;;;;;;;;;;;;4993797;28;19943;-84
2022/06/02 07:46:41;;;;;;;;;;;;;;;;;;5004104;28;19970;-83
2022/06/02 07:49:24;;;;;;;;;;;;;;;;;;4997942;28;20373;-84
2022/06/02 07:51:55;;;;;;;;;;;;;;;;;;5004054;28;19925;-82
2022/06/02 07:54:23;;;;;;;;;;;;;;;;;;4995170;28;20324;-84
2022/06/02 07:56:52;;;;;;;;;;;;;;;;;;5009621;28;20008;-84
2022/06/02 07:59:18;;;;;;;;;;;;;;;;;;4978258;28;19921;-84
2022/06/02 08:01:43;;;;;;;;;;;;;;;;;;5003657;28;19918;-85
2022/06/02 08:04:11;;;;;;;;;;;;;;;;;;4995682;28;19920;-83
2022/06/02 08:06:40;;;;;;;;;;;;;;;;;;5003032;28;19932;-83
2022/06/02 08:09:18;;;;;;;;;;;;;;;;;;4988032;28;19949;-84
2022/06/02 08:11:43;;;;;;;;;;;;;;;;;;5000942;28;20004;-84
2022/06/02 08:14:28;;;;;;;;;;;;;;;;;;4997356;28;19921;-84
2022/06/02 08:16:56;;;;;;;;;;;;;;;;;;4990958;28;19928;-84
2022/06/02 08:19:28;;;;;;;;;;;;;;;;;;4978657;28;19918;-84
2022/06/02 08:21:55;;;;;;;;;;;;;;;;;;4981530;28;19913;-84
2022/06/02 08:24:29;;;;;;;;;;;;;;;;;;4980318;28;19939;-83
2022/06/02 08:27:09;;;;;;;;;;;;;;;;;;5002201;28;19933;-84
2022/06/02 08:29:55;;;;;;;;;;;;;;;;;;4999239;28;19925;-84
2022/06/02 08:32:36;;;;;;;;;;;;;;;;;;4995384;28;19918;-84
2022/06/02 08:35:04;;;;;;;;;;;;;;;;;;4980463;28;19972;-84
2022/06/02 08:37:40;;;;;;;;;;;;;;;;;;4996400;28;19921;-84
2022/06/02 08:40:17;;;;;;;;;;;;;;;;;;4972656;28;19918;-84
2022/06/02 08:42:42;;;;;;;;;;;;;;;;;;4983243;28;19972;-84
2022/06/02 08:45:18;;;;;;;;;;;;;;;;;;4983037;28;19918;-84
2022/06/02 08:47:55;;;;;;;;;;;;;;;;;;5003558;28;20384;-83
2022/06/02 08:50:26;;;;;;;;;;;;;;;;;;4974467;28;19918;-85
2022/06/02 08:53:03;;;;;;;;;;;;;;;;;;5003095;28;19999;-84
2022/06/02 08:55:40;;;;;;;;;;;;;;;;;;4992923;28;19921;-83
2022/06/02 08:58:24;;;;;;;;;;;;;;;;;;4995163;28;20008;-84
2022/06/02 09:01:01;;;;;;;;;;;;;;;;;;4992913;28;19913;-84
2022/06/02 09:03:38;;;;;;;;;;;;;;;;;;4995189;28;19949;-84
2022/06/02 09:06:23;;;;;;;;;;;;;;;;;;4980889;28;20064;-85
2022/06/02 09:08:57;;;;;;;;;;;;;;;;;;4999941;28;19917;-84
2022/06/02 09:11:29;;;;;;;;;;;;;;;;;;4993683;28;19918;-83
2022/06/02 09:14:09;;;;;;;;;;;;;;;;;;4976615;28;20427;-83
2022/06/02 09:16:54;;;;;;;;;;;;;;;;;;5009889;28;19921;-82
2022/06/02 09:19:35;;;;;;;;;;;;;;;;;;4996550;28;20029;-83
2022/06/02 09:22:19;;;;;;;;;;;;;;;;;;4992485;28;19924;-83
2022/06/02 09:24:47;;;;;;;;;;;;;;;;;;4999765;28;20366;-84
2022/06/02 09:27:31;;;;;;;;;;;;;;;;;;5005305;28;20408;-83
2022/06/02 09:30:05;;;;;;;;;;;;;;;;;;4994168;28;21040;-83
2022/06/02 09:32:49;;;;;;;;;;;;;;;;;;4979674;28;21026;-83
2022/06/02 09:35:19;;;;;;;;;;;;;;;;;;4998311;28;19976;-83
2022/06/02 09:38:03;;;;;;;;;;;;;;;;;;5002905;28;20447;-83
2022/06/02 09:40:28;;;;;;;;;;;;;;;;;;4990545;28;19981;-83
2022/06/02 09:42:53;;;;;;;;;;;;;;;;;;4996265;28;20005;-84
2022/06/02 09:45:30;;;;;;;;;;;;;;;;;;4976182;28;20333;-84
2022/06/02 09:48:06;;;;;;;;;;;;;;;;;;4993380;28;20010;-83
2022/06/02 09:50:41;;;;;;;;;;;;;;;;;;4978443;28;20393;-82
2022/06/02 09:53:09;;;;;;;;;;;;;;;;;;5003930;28;20264;-84
2022/06/02 09:55:34;;;;;;;;;;;;;;;;;;4999100;28;20369;-84
2022/06/02 09:58:18;;;;;;;;;;;;;;;;;;4977097;28;19918;-84
2022/06/02 10:00:44;;;;;;;;;;;;;;;;;;4991078;28;19918;-84
2022/06/02 10:03:12;;;;;;;;;;;;;;;;;;4995446;28;19924;-83
2022/06/02 10:05:43;;;;;;;;;;;;;;;;;;4989462;28;19920;-84
2022/06/02 10:08:27;;;;;;;;;;;;;;;;;;4986134;28;19925;-84
2022/06/02 10:11:11;;;;;;;;;;;;;;;;;;5007730;28;19918;-84
2022/06/02 10:13:36;;;;;;;;;;;;;;;;;;5009239;28;19953;-84
2022/06/02 10:16:09;;;;;;;;;;;;;;;;;;4990281;28;19921;-83
2022/06/02 10:18:37;;;;;;;;;;;;;;;;;;4959506;28;20373;-84
2022/06/02 10:21:17;;;;;;;;;;;;;;;;;;5007586;28;19921;-84
2022/06/02 10:24:01;;;;;;;;;;;;;;;;;;4997316;28;20389;-85
2022/06/02 10:26:45;;;;;;;;;;;;;;;;;;4998963;28;19924;-84
2022/06/02 10:29:32;;;;;;;;;;;;;;;;;;4989499;28;19926;-85
2022/06/02 10:32:07;;;;;;;;;;;;;;;;;;4981148;28;19922;-84
2022/06/02 10:34:51;;;;;;;;;;;;;;;;;;4981285;28;20313;-87
2022/06/02 10:37:22;;;;;;;;;;;;;;;;;;4998888;28;19921;-86
2022/06/02 10:40:08;;;;;;;;;;;;;;;;;;4979083;28;19917;-88
2022/06/02 10:42:35;;;;;;;;;;;;;;;;;;4959240;28;19921;-86
2022/06/02 10:45:19;;;;;;;;;;;;;;;;;;4971741;28;19988;-86
2022/06/02 10:47:46;;;;;;;;;;;;;;;;;;5007809;28;19925;-86
2022/06/02 10:50:31;;;;;;;;;;;;;;;;;;5001307;28;19924;-87
2022/06/02 10:53:05;;;;;;;;;;;;;;;;;;5008480;28;19917;-85
2022/06/02 10:55:49;;;;;;;;;;;;;;;;;;5000949;28;19917;-86
2022/06/02 10:58:32;;;;;;;;;;;;;;;;;;4999564;28;19925;-85
2022/06/02 11:01:00;;;;;;;;;;;;;;;;;;4980105;28;20009;-86
2022/06/02 11:03:45;;;;;;;;;;;;;;;;;;4991366;28;20020;-85
2022/06/02 11:06:29;;;;;;;;;;;;;;;;;;4995631;28;19921;-86
2022/06/02 11:09:20;;;;;;;;;;;;;;;;;;4991608;28;19991;-86
2022/06/02 11:12:15;;;;;;;;;;;;;;;;;;4983699;28;19921;-86
2022/06/02 11:14:40;;;;;;;;;;;;;;;;;;4982753;28;19917;-85
2022/06/02 11:17:11;;;;;;;;;;;;;;;;;;4996267;28;20356;-85
2022/06/02 11:19:36;;;;;;;;;;;;;;;;;;4993767;28;20381;-87
2022/06/02 11:22:20;;;;;;;;;;;;;;;;;;4994442;28;20040;-85
2022/06/02 11:24:51;;;;;;;;;;;;;;;;;;4976342;28;19937;-86
2022/06/02 11:27:38;;;;;;;;;;;;;;;;;;4997761;28;19930;-85
2022/06/02 11:30:38;;;;;;;;;;;;;;;;;;4993783;28;19976;-85
2022/06/02 11:33:14;;;;;;;;;;;;;;;;;;4996955;28;20015;-87
2022/06/02 11:35:58;;;;;;;;;;;;;;;;;;4952321;28;19949;-85
2022/06/02 11:38:26;;;;;;;;;;;;;;;;;;4993515;28;19985;-85
2022/06/02 11:40:54;;;;;;;;;;;;;;;;;;5003996;28;20384;-87
2022/06/02 11:43:26;;;;;;;;;;;;;;;;;;4994889;28;19913;-86
2022/06/02 11:46:03;;;;;;;;;;;;;;;;;;4985889;28;19922;-87
2022/06/02 11:48:29;;;;;;;;;;;;;;;;;;5004909;28;19917;-87
2022/06/02 11:51:14;;;;;;;;;;;;;;;;;;4995962;28;19924;-86
2022/06/02 11:54:05;;;;;;;;;;;;;;;;;;4983824;28;20305;-85
2022/06/02 11:56:35;;;;;;;;;;;;;;;;;;4980862;28;19983;-85
2022/06/02 11:59:19;;;;;;;;;;;;;;;;;;4986890;28;19917;-85
2022/06/02 12:02:03;;;;;;;;;;;;;;;;;;4995710;28;20004;-86
2022/06/02 12:05:07;;;;;;;;;;;;;;;;;;4998138;28;20348;-86
2022/06/02 12:07:47;;;;;;;;;;;;;;;;;;4973302;28;19928;-84
2022/06/02 12:10:31;;;;;;;;;;;;;;;;;;4975725;28;19963;-85
2022/06/02 12:12:59;;;;;;;;;;;;;;;;;;4974734;28;20380;-84
2022/06/02 12:15:25;;;;;;;;;;;;;;;;;;4962729;28;19968;-85
2022/06/02 12:18:10;;;;;;;;;;;;;;;;;;4991872;28;20008;-86
2022/06/02 12:20:44;;;;;;;;;;;;;;;;;;4960912;28;19979;-85
2022/06/02 12:23:31;;;;;;;;;;;;;;;;;;4960380;28;20908;-85
2022/06/02 12:25:59;;;;;;;;;;;;;;;;;;4973581;28;19929;-85
2022/06/02 12:28:24;;;;;;;;;;;;;;;;;;4987366;28;19929;-86
2022/06/02 12:30:54;;;;;;;;;;;;;;;;;;4969984;28;20041;-85
2022/06/02 12:33:25;;;;;;;;;;;;;;;;;;4951953;28;19914;-85
2022/06/02 12:35:56;;;;;;;;;;;;;;;;;;4974169;28;20020;-85
2022/06/02 12:38:40;;;;;;;;;;;;;;;;;;4975368;28;19954;-85
2022/06/02 12:41:11;;;;;;;;;;;;;;;;;;5010129;28;19975;-86
2022/06/02 12:43:48;;;;;;;;;;;;;;;;;;4972903;28;19924;-85
2022/06/02 12:46:19;;;;;;;;;;;;;;;;;;4995651;28;20029;-85
2022/06/02 12:49:00;;;;;;;;;;;;;;;;;;4997231;28;20863;-85
2022/06/02 12:51:25;;;;;;;;;;;;;;;;;;4996816;28;19921;-84
2022/06/02 12:53:50;;;;;;;;;;;;;;;;;;4997811;28;19925;-84
2022/06/02 12:56:25;;;;;;;;;;;;;;;;;;4996483;28;19918;-84
2022/06/02 12:58:51;;;;;;;;;;;;;;;;;;4995868;28;19932;-85
2022/06/02 13:01:16;;;;;;;;;;;;;;;;;;4995646;28;19917;-86
2022/06/02 13:04:00;;;;;;;;;;;;;;;;;;4984076;28;19913;-85
2022/06/02 13:06:44;;;;;;;;;;;;;;;;;;4987034;28;20486;-85
2022/06/02 13:09:28;;;;;;;;;;;;;;;;;;4995643;28;19920;-85
2022/06/02 13:12:19;;;;;;;;;;;;;;;;;;4992255;28;20257;-85
2022/06/02 13:14:47;;;;;;;;;;;;;;;;;;4995015;28;19996;-86
2022/06/02 13:17:12;;;;;;;;;;;;;;;;;;4986941;28;19933;-86
2022/06/02 13:19:56;;;;;;;;;;;;;;;;;;4983481;28;20357;-85
2022/06/02 13:22:21;;;;;;;;;;;;;;;;;;5008234;28;19924;-86
2022/06/02 13:24:47;;;;;;;;;;;;;;;;;;4989971;28;19973;-85
2022/06/02 13:27:30;;;;;;;;;;;;;;;;;;4989412;28;20409;-85
2022/06/02 13:29:58;;;;;;;;;;;;;;;;;;4978391;28;19918;-85
2022/06/02 13:32:23;;;;;;;;;;;;;;;;;;4993250;28;20297;-85
2022/06/02 13:35:07;;;;;;;;;;;;;;;;;;5002115;28;20008;-86
2022/06/02 13:37:51;;;;;;;;;;;;;;;;;;4986567;28;19925;-85
2022/06/02 13:40:36;;;;;;;;;;;;;;;;;;4993367;28;19913;-85
2022/06/02 13:43:07;;;;;;;;;;;;;;;;;;4993464;28;19983;-85
2022/06/02 13:46:02;;;;;;;;;;;;;;;;;;4990314;28;20356;-85
2022/06/02 13:48:46;;;;;;;;;;;;;;;;;;4994180;28;19975;-85
2022/06/02 13:51:27;;;;;;;;;;;;;;;;;;4995316;28;20011;-84
2022/06/02 13:59:29;;;;;;;;;;;;;;;;;;4992301;28;19925;-78
2022/06/02 14:01:59;;;;;;;;;;;;;;;;;;4992725;28;19925;-80
2022/06/02 14:04:43;;;;;;;;;;;;;;;;;;4965606;28;19929;-80
2022/06/02 14:07:11;;;;;;;;;;;;;;;;;;4978847;28;19928;-81
2022/06/02 14:09:41;;;;;;;;;;;;;;;;;;4989653;28;19918;-83
2022/06/02 14:12:11;;;;;;;;;;;;;;;;;;5001121;28;19957;-84
2022/06/02 14:14:56;;;;;;;;;;;;;;;;;;4976056;28;19918;-83
2022/06/02 14:17:28;;;;;;;;;;;;;;;;;;4989818;28;20445;-82
2022/06/02 14:20:05;;;;;;;;;;;;;;;;;;4979586;28;19922;-84
2022/06/02 14:22:39;;;;;;;;;;;;;;;;;;5001149;28;19924;-83
2022/06/02 14:25:14;;;;;;;;;;;;;;;;;;4984111;28;19968;-83
2022/06/02 14:27:42;;;;;;;;;;;;;;;;;;4997203;28;19984;-84
2022/06/02 14:30:20;;;;;;;;;;;;;;;;;;5006233;28;19941;-84
2022/06/02 14:33:00;;;;;;;;;;;;;;;;;;4980428;28;20510;-84
2022/06/02 14:35:25;;;;;;;;;;;;;;;;;;4995606;28;20379;-83
2022/06/02 14:37:57;;;;;;;;;;;;;;;;;;4994766;28;19917;-83
2022/06/02 14:40:30;;;;;;;;;;;;;;;;;;4984574;28;20376;-83
2022/06/02 14:43:04;;;;;;;;;;;;;;;;;;4985257;28;19924;-82
2022/06/02 14:45:48;;;;;;;;;;;;;;;;;;4992038;28;20352;-83
2022/06/02 14:48:14;;;;;;;;;;;;;;;;;;5009151;28;20365;-83
2022/06/02 14:51:05;;;;;;;;;;;;;;;;;;4994367;28;19928;-82
2022/06/02 14:53:30;;;;;;;;;;;;;;;;;;4979328;28;19972;-85
2022/06/02 14:55:58;;;;;;;;;;;;;;;;;;4991760;28;20296;-82
2022/06/02 14:58:29;;;;;;;;;;;;;;;;;;4992671;28;20456;-83
2022/06/02 15:01:14;;;;;;;;;;;;;;;;;;4977099;28;20008;-82
2022/06/02 15:03:48;;;;;;;;;;;;;;;;;;5000224;28;19917;-84
2022/06/02 15:06:17;;;;;;;;;;;;;;;;;;4993017;28;19921;-85
2022/06/02 15:08:56;;;;;;;;;;;;;;;;;;4992082;28;19924;-85
2022/06/02 15:11:42;;;;;;;;;;;;;;;;;;4986939;28;19963;-83
2022/06/02 15:14:26;;;;;;;;;;;;;;;;;;4990827;28;19931;-85
2022/06/02 15:17:07;;;;;;;;;;;;;;;;;;4990859;28;19925;-85
2022/06/02 15:19:35;;;;;;;;;;;;;;;;;;4991339;28;19988;-86
2022/06/02 15:22:05;;;;;;;;;;;;;;;;;;4994374;28;19917;-85
2022/06/02 15:24:36;;;;;;;;;;;;;;;;;;4997714;28;20125;-84
2022/06/02 15:27:17;;;;;;;;;;;;;;;;;;4996413;28;20284;-82
2022/06/02 15:29:46;;;;;;;;;;;;;;;;;;4983407;28;19951;-85
2022/06/02 15:32:27;;;;;;;;;;;;;;;;;;4995639;28;19918;-84
2022/06/02 15:35:11;;;;;;;;;;;;;;;;;;4983184;28;20288;-84
2022/06/02 15:37:55;;;;;;;;;;;;;;;;;;4995212;28;20630;-84
2022/06/02 15:40:20;;;;;;;;;;;;;;;;;;4997473;28;20427;-85
2022/06/02 15:43:04;;;;;;;;;;;;;;;;;;4997632;28;19914;-85
2022/06/02 15:45:41;;;;;;;;;;;;;;;;;;4991307;28;19920;-83
2022/06/02 15:48:25;;;;;;;;;;;;;;;;;;4997494;28;19995;-82
2022/06/02 15:51:00;;;;;;;;;;;;;;;;;;4995143;28;19914;-84
2022/06/02 15:53:31;;;;;;;;;;;;;;;;;;4996621;28;20008;-83
2022/06/02 15:56:15;;;;;;;;;;;;;;;;;;5011247;28;19925;-84
2022/06/02 15:58:46;;;;;;;;;;;;;;;;;;5000316;28;19922;-83
2022/06/02 16:01:14;;;;;;;;;;;;;;;;;;4987502;28;19961;-85
2022/06/02 16:03:57;;;;;;;;;;;;;;;;;;4996795;28;19952;-84
2022/06/02 16:06:30;;;;;;;;;;;;;;;;;;4997872;28;19921;-84
2022/06/02 16:12:14;;;;;;;;;;;;;;;;;;5001929;28;19924;-86
2022/06/02 16:14:39;;;;;;;;;;;;;;;;;;4996349;28;19953;-85
2022/06/02 16:17:23;;;;;;;;;;;;;;;;;;5002314;28;20377;-85
2022/06/02 16:20:03;;;;;;;;;;;;;;;;;;5001827;28;19929;-84
2022/06/02 16:22:37;;;;;;;;;;;;;;;;;;4993815;28;19975;-85
2022/06/02 16:25:16;;;;;;;;;;;;;;;;;;4995659;28;19952;-85
2022/06/02 16:27:52;;;;;;;;;;;;;;;;;;4960817;28;19930;-84
2022/06/02 16:30:36;;;;;;;;;;;;;;;;;;4978722;28;20448;-86
2022/06/02 16:33:15;;;;;;;;;;;;;;;;;;4993148;28;19920;-85
2022/06/02 16:35:52;;;;;;;;;;;;;;;;;;4992239;28;19993;-84
2022/06/02 16:38:28;;;;;;;;;;;;;;;;;;4995934;28;20012;-84
2022/06/02 16:41:05;;;;;;;;;;;;;;;;;;4997778;28;19918;-84
2022/06/02 16:44:07;;;;;;;;;;;;;;;;;;5004239;28;19988;-85
2022/06/02 16:46:45;;;;;;;;;;;;;;;;;;4978111;28;19928;-85
2022/06/02 16:49:28;;;;;;;;;;;;;;;;;;4959017;28;20392;-86
2022/06/02 16:52:09;;;;;;;;;;;;;;;;;;5008840;28;19917;-84
2022/06/02 16:54:53;;;;;;;;;;;;;;;;;;4977675;28;19918;-85
2022/06/02 16:57:39;;;;;;;;;;;;;;;;;;4995069;28;19924;-86
2022/06/02 17:00:20;;;;;;;;;;;;;;;;;;4996457;28;19914;-84
2022/06/02 17:03:04;;;;;;;;;;;;;;;;;;4983665;28;19940;-87
2022/06/02 17:05:32;;;;;;;;;;;;;;;;;;4995507;28;19917;-84
2022/06/02 17:08:06;;;;;;;;;;;;;;;;;;4992266;28;19928;-85
2022/06/02 17:10:37;;;;;;;;;;;;;;;;;;4992700;28;19988;-87
2022/06/02 17:13:15;;;;;;;;;;;;;;;;;;4993830;28;19918;-86
2022/06/02 17:15:43;;;;;;;;;;;;;;;;;;4994484;28;19913;-84
2022/06/02 17:18:12;;;;;;;;;;;;;;;;;;4997393;28;19929;-86
2022/06/02 17:20:43;;;;;;;;;;;;;;;;;;4992804;28;19917;-84
2022/06/02 17:23:11;;;;;;;;;;;;;;;;;;4991153;28;19950;-85
2022/06/02 17:25:55;;;;;;;;;;;;;;;;;;4981768;28;19918;-88
2022/06/02 17:28:39;;;;;;;;;;;;;;;;;;4995791;28;19925;-87
2022/06/02 17:31:23;;;;;;;;;;;;;;;;;;4997647;28;19917;-85
2022/06/02 17:34:08;;;;;;;;;;;;;;;;;;5000734;28;19961;-86
2022/06/02 17:36:40;;;;;;;;;;;;;;;;;;4992074;28;19913;-86
2022/06/02 17:39:08;;;;;;;;;;;;;;;;;;4987918;28;20308;-87
2022/06/02 17:41:33;;;;;;;;;;;;;;;;;;4995328;28;19917;-86
2022/06/02 17:44:05;;;;;;;;;;;;;;;;;;4997157;28;19928;-87
2022/06/02 17:46:49;;;;;;;;;;;;;;;;;;4979019;28;19972;-86
2022/06/02 17:49:32;;;;;;;;;;;;;;;;;;5000847;28;19928;-86
2022/06/02 17:52:06;;;;;;;;;;;;;;;;;;4991623;28;19921;-80
2022/06/02 17:54:42;;;;;;;;;;;;;;;;;;4975553;28;19918;-80